sensor_id;sensor_type;location;lat;lon;timestamp;P1;durP1;ratioP1;P2;durP2;ratioP2
58372;SDS011;44177;43.356;27.672;2023-03-11T00:02:15;4.00;;;1.80;;
58372;SDS011;44177;43.356;27.672;2023-03-11T00:04:41;3.28;;;1.77;;
58372;SDS011;44177;43.356;27.672;2023-03-11T00:07:08;2.67;;;1.70;;
58372;SDS011;44177;43.356;27.672;2023-03-11T00:09:34;3.85;;;1.60;;
58372;SDS011;44177;43.356;27.672;2023-03-11T00:12:00;2.65;;;1.65;;
58372;SDS011;44177;43.356;27.672;2023-03-11T00:14:25;2.65;;;1.70;;
58372;SDS011;44177;43.356;27.672;2023-03-11T00:16:51;2.35;;;1.40;;
58372;SDS011;44177;43.356;27.672;2023-03-11T00:19:17;2.47;;;1.50;;
58372;SDS011;44177;43.356;27.672;2023-03-11T00:21:42;3.80;;;1.83;;
58372;SDS011;44177;43.356;27.672;2023-03-11T00:24:08;3.13;;;1.60;;
58372;SDS011;44177;43.356;27.672;2023-03-11T00:26:33;3.08;;;1.65;;
58372;SDS011;44177;43.356;27.672;2023-03-11T00:28:59;2.00;;;1.60;;
58372;SDS011;44177;43.356;27.672;2023-03-11T00:31:25;3.72;;;1.65;;
58372;SDS011;44177;43.356;27.672;2023-03-11T00:33:51;3.50;;;1.80;;
58372;SDS011;44177;43.356;27.672;2023-03-11T00:36:24;3.35;;;1.80;;
58372;SDS011;44177;43.356;27.672;2023-03-11T00:38:55;2.15;;;1.50;;
58372;SDS011;44177;43.356;27.672;2023-03-11T00:41:21;2.53;;;1.60;;
58372;SDS011;44177;43.356;27.672;2023-03-11T00:43:47;4.60;;;1.88;;
58372;SDS011;44177;43.356;27.672;2023-03-11T00:46:12;2.67;;;1.55;;
58372;SDS011;44177;43.356;27.672;2023-03-11T00:48:37;2.58;;;1.83;;
58372;SDS011;44177;43.356;27.672;2023-03-11T00:51:03;5.00;;;1.80;;
58372;SDS011;44177;43.356;27.672;2023-03-11T00:53:31;6.00;;;1.88;;
58372;SDS011;44177;43.356;27.672;2023-03-11T00:55:56;3.10;;;1.67;;
58372;SDS011;44177;43.356;27.672;2023-03-11T00:58:22;3.22;;;1.70;;
58372;SDS011;44177;43.356;27.672;2023-03-11T01:00:52;3.47;;;1.77;;
58372;SDS011;44177;43.356;27.672;2023-03-11T01:03:17;3.42;;;1.80;;
58372;SDS011;44177;43.356;27.672;2023-03-11T01:05:43;3.92;;;1.65;;
58372;SDS011;44177;43.356;27.672;2023-03-11T01:08:08;4.57;;;1.90;;
58372;SDS011;44177;43.356;27.672;2023-03-11T01:10:34;2.72;;;1.50;;
58372;SDS011;44177;43.356;27.672;2023-03-11T01:13:01;5.13;;;2.00;;
58372;SDS011;44177;43.356;27.672;2023-03-11T01:15:29;2.80;;;1.60;;
58372;SDS011;44177;43.356;27.672;2023-03-11T01:17:57;3.35;;;1.58;;
58372;SDS011;44177;43.356;27.672;2023-03-11T01:20:22;3.85;;;1.73;;
58372;SDS011;44177;43.356;27.672;2023-03-11T01:22:48;2.90;;;1.77;;
58372;SDS011;44177;43.356;27.672;2023-03-11T01:25:15;3.17;;;1.75;;
58372;SDS011;44177;43.356;27.672;2023-03-11T01:27:42;2.92;;;1.65;;
58372;SDS011;44177;43.356;27.672;2023-03-11T01:30:08;4.53;;;1.80;;
58372;SDS011;44177;43.356;27.672;2023-03-11T01:32:37;4.65;;;1.70;;
58372;SDS011;44177;43.356;27.672;2023-03-11T01:35:02;5.05;;;1.80;;
58372;SDS011;44177;43.356;27.672;2023-03-11T01:37:28;4.15;;;1.50;;
58372;SDS011;44177;43.356;27.672;2023-03-11T01:39:53;4.78;;;1.70;;
58372;SDS011;44177;43.356;27.672;2023-03-11T01:42:19;4.72;;;1.75;;
58372;SDS011;44177;43.356;27.672;2023-03-11T01:44:44;5.15;;;2.00;;
58372;SDS011;44177;43.356;27.672;2023-03-11T01:49:35;4.18;;;1.60;;
58372;SDS011;44177;43.356;27.672;2023-03-11T01:52:06;4.60;;;1.95;;
58372;SDS011;44177;43.356;27.672;2023-03-11T01:54:33;3.70;;;1.70;;
58372;SDS011;44177;43.356;27.672;2023-03-11T01:57:04;3.38;;;1.58;;
58372;SDS011;44177;43.356;27.672;2023-03-11T01:59:32;3.67;;;1.42;;
58372;SDS011;44177;43.356;27.672;2023-03-11T02:05:20;5.50;;;1.70;;
58372;SDS011;44177;43.356;27.672;2023-03-11T02:07:46;3.72;;;1.40;;
58372;SDS011;44177;43.356;27.672;2023-03-11T02:10:14;3.33;;;1.80;;
58372;SDS011;44177;43.356;27.672;2023-03-11T02:12:40;2.50;;;1.40;;
58372;SDS011;44177;43.356;27.672;2023-03-11T02:15:07;2.90;;;1.58;;
58372;SDS011;44177;43.356;27.672;2023-03-11T02:17:34;2.30;;;1.30;;
58372;SDS011;44177;43.356;27.672;2023-03-11T02:22:39;2.80;;;1.33;;
58372;SDS011;44177;43.356;27.672;2023-03-11T02:27:40;3.00;;;1.63;;
58372;SDS011;44177;43.356;27.672;2023-03-11T02:30:12;3.92;;;1.55;;
58372;SDS011;44177;43.356;27.672;2023-03-11T02:32:38;2.92;;;1.55;;
58372;SDS011;44177;43.356;27.672;2023-03-11T02:35:05;3.55;;;1.70;;
58372;SDS011;44177;43.356;27.672;2023-03-11T02:37:31;3.08;;;1.60;;
58372;SDS011;44177;43.356;27.672;2023-03-11T02:40:26;3.30;;;1.88;;
58372;SDS011;44177;43.356;27.672;2023-03-11T02:42:44;3.67;;;1.60;;
58372;SDS011;44177;43.356;27.672;2023-03-11T02:45:11;2.67;;;1.50;;
58372;SDS011;44177;43.356;27.672;2023-03-11T02:47:39;3.50;;;1.40;;
58372;SDS011;44177;43.356;27.672;2023-03-11T02:50:06;5.10;;;1.38;;
58372;SDS011;44177;43.356;27.672;2023-03-11T02:52:35;6.60;;;1.80;;
58372;SDS011;44177;43.356;27.672;2023-03-11T02:55:01;4.60;;;1.52;;
58372;SDS011;44177;43.356;27.672;2023-03-11T02:57:27;6.97;;;1.63;;
58372;SDS011;44177;43.356;27.672;2023-03-11T02:59:53;2.65;;;1.40;;
58372;SDS011;44177;43.356;27.672;2023-03-11T03:02:18;5.43;;;1.70;;
58372;SDS011;44177;43.356;27.672;2023-03-11T03:04:44;3.47;;;1.40;;
58372;SDS011;44177;43.356;27.672;2023-03-11T03:07:09;3.58;;;1.40;;
58372;SDS011;44177;43.356;27.672;2023-03-11T03:09:35;2.80;;;1.38;;
58372;SDS011;44177;43.356;27.672;2023-03-11T03:12:01;4.68;;;1.50;;
58372;SDS011;44177;43.356;27.672;2023-03-11T03:14:28;2.25;;;1.30;;
58372;SDS011;44177;43.356;27.672;2023-03-11T03:16:54;3.30;;;1.65;;
58372;SDS011;44177;43.356;27.672;2023-03-11T03:19:19;2.10;;;1.25;;
58372;SDS011;44177;43.356;27.672;2023-03-11T03:21:45;3.10;;;1.77;;
58372;SDS011;44177;43.356;27.672;2023-03-11T03:24:10;3.60;;;1.60;;
58372;SDS011;44177;43.356;27.672;2023-03-11T03:26:36;2.65;;;1.65;;
58372;SDS011;44177;43.356;27.672;2023-03-11T03:29:02;3.97;;;1.35;;
58372;SDS011;44177;43.356;27.672;2023-03-11T03:31:28;3.38;;;1.45;;
58372;SDS011;44177;43.356;27.672;2023-03-11T03:33:54;2.10;;;1.20;;
58372;SDS011;44177;43.356;27.672;2023-03-11T03:36:19;4.28;;;1.77;;
58372;SDS011;44177;43.356;27.672;2023-03-11T03:38:45;4.47;;;1.60;;
58372;SDS011;44177;43.356;27.672;2023-03-11T03:41:12;4.45;;;1.60;;
58372;SDS011;44177;43.356;27.672;2023-03-11T03:43:39;3.40;;;1.60;;
58372;SDS011;44177;43.356;27.672;2023-03-11T03:46:05;4.68;;;1.92;;
58372;SDS011;44177;43.356;27.672;2023-03-11T03:48:30;3.45;;;1.70;;
58372;SDS011;44177;43.356;27.672;2023-03-11T03:51:01;3.53;;;1.40;;
58372;SDS011;44177;43.356;27.672;2023-03-11T03:53:32;3.00;;;1.30;;
58372;SDS011;44177;43.356;27.672;2023-03-11T03:56:00;5.32;;;1.65;;
58372;SDS011;44177;43.356;27.672;2023-03-11T03:58:27;3.35;;;1.50;;
58372;SDS011;44177;43.356;27.672;2023-03-11T04:00:56;2.58;;;1.40;;
58372;SDS011;44177;43.356;27.672;2023-03-11T04:03:23;5.32;;;1.85;;
58372;SDS011;44177;43.356;27.672;2023-03-11T04:05:51;3.13;;;1.50;;
58372;SDS011;44177;43.356;27.672;2023-03-11T04:08:17;3.63;;;1.40;;
58372;SDS011;44177;43.356;27.672;2023-03-11T04:10:43;3.58;;;1.60;;
58372;SDS011;44177;43.356;27.672;2023-03-11T04:13:09;3.35;;;1.40;;
58372;SDS011;44177;43.356;27.672;2023-03-11T04:15:36;5.47;;;1.63;;
58372;SDS011;44177;43.356;27.672;2023-03-11T04:18:02;2.92;;;1.42;;
58372;SDS011;44177;43.356;27.672;2023-03-11T04:20:28;3.97;;;1.30;;
58372;SDS011;44177;43.356;27.672;2023-03-11T04:22:53;3.72;;;1.50;;
58372;SDS011;44177;43.356;27.672;2023-03-11T04:25:19;4.13;;;1.95;;
58372;SDS011;44177;43.356;27.672;2023-03-11T04:27:44;3.53;;;1.55;;
58372;SDS011;44177;43.356;27.672;2023-03-11T04:30:13;3.30;;;1.55;;
58372;SDS011;44177;43.356;27.672;2023-03-11T04:32:40;3.63;;;1.75;;
58372;SDS011;44177;43.356;27.672;2023-03-11T04:35:06;3.28;;;1.98;;
58372;SDS011;44177;43.356;27.672;2023-03-11T04:37:32;3.50;;;1.90;;
58372;SDS011;44177;43.356;27.672;2023-03-11T04:39:57;3.33;;;1.95;;
58372;SDS011;44177;43.356;27.672;2023-03-11T04:42:23;4.78;;;2.00;;
58372;SDS011;44177;43.356;27.672;2023-03-11T04:44:48;4.55;;;2.17;;
58372;SDS011;44177;43.356;27.672;2023-03-11T04:47:14;3.20;;;2.20;;
58372;SDS011;44177;43.356;27.672;2023-03-11T04:49:39;4.20;;;2.10;;
58372;SDS011;44177;43.356;27.672;2023-03-11T04:52:05;6.65;;;2.00;;
58372;SDS011;44177;43.356;27.672;2023-03-11T04:54:30;4.35;;;2.15;;
58372;SDS011;44177;43.356;27.672;2023-03-11T04:56:56;3.35;;;2.00;;
58372;SDS011;44177;43.356;27.672;2023-03-11T04:59:21;3.88;;;2.05;;
58372;SDS011;44177;43.356;27.672;2023-03-11T05:01:47;4.47;;;2.10;;
58372;SDS011;44177;43.356;27.672;2023-03-11T05:04:12;4.88;;;1.67;;
58372;SDS011;44177;43.356;27.672;2023-03-11T05:06:38;4.25;;;1.88;;
58372;SDS011;44177;43.356;27.672;2023-03-11T05:09:03;3.78;;;1.90;;
58372;SDS011;44177;43.356;27.672;2023-03-11T05:11:29;3.25;;;1.50;;
58372;SDS011;44177;43.356;27.672;2023-03-11T05:13:55;3.97;;;1.92;;
58372;SDS011;44177;43.356;27.672;2023-03-11T05:16:21;3.63;;;1.67;;
58372;SDS011;44177;43.356;27.672;2023-03-11T05:18:46;4.40;;;1.67;;
58372;SDS011;44177;43.356;27.672;2023-03-11T05:21:12;1.80;;;1.52;;
58372;SDS011;44177;43.356;27.672;2023-03-11T05:23:38;4.47;;;1.63;;
58372;SDS011;44177;43.356;27.672;2023-03-11T05:26:04;2.80;;;1.55;;
58372;SDS011;44177;43.356;27.672;2023-03-11T05:28:29;3.03;;;1.83;;
58372;SDS011;44177;43.356;27.672;2023-03-11T05:30:55;3.08;;;1.65;;
58372;SDS011;44177;43.356;27.672;2023-03-11T05:33:20;4.28;;;1.70;;
58372;SDS011;44177;43.356;27.672;2023-03-11T05:35:46;3.85;;;1.90;;
58372;SDS011;44177;43.356;27.672;2023-03-11T05:38:12;2.60;;;1.70;;
58372;SDS011;44177;43.356;27.672;2023-03-11T05:40:38;3.97;;;1.60;;
58372;SDS011;44177;43.356;27.672;2023-03-11T05:43:03;3.30;;;1.73;;
58372;SDS011;44177;43.356;27.672;2023-03-11T05:45:29;4.63;;;1.98;;
58372;SDS011;44177;43.356;27.672;2023-03-11T05:47:54;2.83;;;1.60;;
58372;SDS011;44177;43.356;27.672;2023-03-11T05:50:20;3.30;;;1.70;;
58372;SDS011;44177;43.356;27.672;2023-03-11T05:52:45;3.88;;;1.70;;
58372;SDS011;44177;43.356;27.672;2023-03-11T05:55:11;3.40;;;1.77;;
58372;SDS011;44177;43.356;27.672;2023-03-11T05:57:37;3.70;;;1.75;;
58372;SDS011;44177;43.356;27.672;2023-03-11T06:00:04;3.70;;;1.77;;
58372;SDS011;44177;43.356;27.672;2023-03-11T06:02:37;5.10;;;2.20;;
58372;SDS011;44177;43.356;27.672;2023-03-11T06:05:04;2.60;;;1.55;;
58372;SDS011;44177;43.356;27.672;2023-03-11T06:07:30;4.63;;;1.80;;
58372;SDS011;44177;43.356;27.672;2023-03-11T06:09:56;5.00;;;2.00;;
58372;SDS011;44177;43.356;27.672;2023-03-11T06:12:21;3.42;;;1.75;;
58372;SDS011;44177;43.356;27.672;2023-03-11T06:14:46;3.67;;;1.70;;
58372;SDS011;44177;43.356;27.672;2023-03-11T06:17:12;5.07;;;2.00;;
58372;SDS011;44177;43.356;27.672;2023-03-11T06:19:37;4.40;;;2.00;;
58372;SDS011;44177;43.356;27.672;2023-03-11T06:22:03;5.45;;;2.10;;
58372;SDS011;44177;43.356;27.672;2023-03-11T06:24:28;5.32;;;2.00;;
58372;SDS011;44177;43.356;27.672;2023-03-11T06:26:54;3.75;;;1.85;;
58372;SDS011;44177;43.356;27.672;2023-03-11T06:29:19;7.72;;;2.03;;
58372;SDS011;44177;43.356;27.672;2023-03-11T06:31:48;19.23;;;3.15;;
58372;SDS011;44177;43.356;27.672;2023-03-11T06:34:14;21.58;;;3.85;;
58372;SDS011;44177;43.356;27.672;2023-03-11T06:36:39;23.85;;;3.35;;
58372;SDS011;44177;43.356;27.672;2023-03-11T06:39:05;35.95;;;4.40;;
58372;SDS011;44177;43.356;27.672;2023-03-11T06:41:33;27.02;;;4.55;;
58372;SDS011;44177;43.356;27.672;2023-03-11T06:43:59;27.67;;;4.63;;
58372;SDS011;44177;43.356;27.672;2023-03-11T06:46:24;25.60;;;3.83;;
58372;SDS011;44177;43.356;27.672;2023-03-11T06:48:50;24.90;;;4.13;;
58372;SDS011;44177;43.356;27.672;2023-03-11T06:51:19;26.67;;;4.50;;
58372;SDS011;44177;43.356;27.672;2023-03-11T06:53:48;36.08;;;4.05;;
58372;SDS011;44177;43.356;27.672;2023-03-11T06:56:16;43.95;;;5.57;;
